createdAt,value
2023-06-07T00:04:04.192Z,76.58
2023-06-07T00:09:08.191Z,76.11
2023-06-07T00:14:10.634Z,76.89
2023-06-07T00:19:12.550Z,76.94
2023-06-07T00:24:14.379Z,77.20
2023-06-07T00:29:16.639Z,77.17
2023-06-07T00:34:18.593Z,77.33
2023-06-07T00:39:20.535Z,77.29
2023-06-07T00:44:22.280Z,77.70
2023-06-07T00:49:24.407Z,77.57
2023-06-07T00:54:26.203Z,76.99
2023-06-07T00:59:29.006Z,74.72
2023-06-07T01:04:31.636Z,74.87
2023-06-07T01:09:33.407Z,74.87
2023-06-07T01:14:35.744Z,75.22
2023-06-07T01:19:38.400Z,74.93
2023-06-07T01:24:44.074Z,76.09
2023-06-07T01:29:48.024Z,76.81
2023-06-07T01:34:51.884Z,77.31
2023-06-07T01:39:56.807Z,75.19
2023-06-07T01:44:59.452Z,75.41
2023-06-07T01:50:02.406Z,75.38
2023-06-07T01:55:07.008Z,75.22
2023-06-07T02:00:26.932Z,75.25
2023-06-07T02:05:51.364Z,75.58
2023-06-07T02:10:53.435Z,75.01
2023-06-07T02:15:55.414Z,75.64
2023-06-07T02:20:57.209Z,76.80
2023-06-07T02:25:59.333Z,77.11
2023-06-07T02:31:01.095Z,77.68
2023-06-07T02:36:03.913Z,78.02
2023-06-07T02:41:05.863Z,78.33
2023-06-07T02:46:08.354Z,77.25
2023-06-07T02:51:10.145Z,76.57
2023-06-07T02:56:12.897Z,76.43
2023-06-07T03:01:15.542Z,77.00
2023-06-07T03:06:23.229Z,77.43
2023-06-07T03:11:26.405Z,78.08
2023-06-07T03:16:29.337Z,78.12
2023-06-07T03:21:35.906Z,77.87
2023-06-07T03:26:41.667Z,75.60
2023-06-07T03:31:44.597Z,75.31
2023-06-07T03:36:51.180Z,75.19
2023-06-07T03:41:54.640Z,75.99
2023-06-07T03:47:00.255Z,76.78
2023-06-07T03:52:03.842Z,77.90
2023-06-07T03:57:08.255Z,78.73
2023-06-07T04:02:15.609Z,79.84
2023-06-07T04:07:18.354Z,80.41
2023-06-07T04:12:20.255Z,80.81
2023-06-07T04:17:22.870Z,81.18
2023-06-07T04:22:25.649Z,81.93
2023-06-07T04:27:30.692Z,82.04
2023-06-07T04:32:34.421Z,82.73
2023-06-07T04:37:38.690Z,82.63
2023-06-07T04:42:41.712Z,83.43
2023-06-07T04:47:46.198Z,83.77
2023-06-07T04:52:50.693Z,83.75
2023-06-07T04:57:55.313Z,83.79
2023-06-07T05:02:59.575Z,84.13
2023-06-07T05:08:02.377Z,83.63
2023-06-07T05:13:04.450Z,83.71
2023-06-07T05:18:08.338Z,83.78
2023-06-07T05:23:10.391Z,84.40
2023-06-07T05:28:14.175Z,84.81
2023-06-07T05:33:22.148Z,84.97
2023-06-07T05:38:24.042Z,84.91
2023-06-07T05:43:26.187Z,84.51
2023-06-07T05:48:28.208Z,85.68
2023-06-07T05:53:30.259Z,87.48
2023-06-07T05:58:32.578Z,89.34
2023-06-07T06:03:34.384Z,90.56
2023-06-07T06:08:36.132Z,92.13
2023-06-07T06:13:38.756Z,92.92
2023-06-07T06:18:42.963Z,93.22
2023-06-07T06:23:45.185Z,93.31
2023-06-07T06:28:47.272Z,93.50
2023-06-07T06:33:49.064Z,93.64
2023-06-07T06:38:51.792Z,93.99
2023-06-07T06:43:53.429Z,95.19
2023-06-07T06:49:11.510Z,95.74
2023-06-07T06:54:14.764Z,95.67
2023-06-07T06:59:17.351Z,96.94
2023-06-07T07:04:19.184Z,96.83
2023-06-07T07:09:21.429Z,97.17
2023-06-07T07:14:23.386Z,96.24
2023-06-07T07:19:25.141Z,94.91
2023-06-07T07:24:27.228Z,93.86
2023-06-07T07:29:29.263Z,92.42
2023-06-07T07:34:31.316Z,91.70
2023-06-07T07:39:33.124Z,91.27
2023-06-07T07:44:35.526Z,90.44
2023-06-07T07:49:37.289Z,89.42
2023-06-07T07:54:39.430Z,88.26
2023-06-07T07:59:41.246Z,88.38
2023-06-07T08:04:43.267Z,87.21
2023-06-07T08:09:45.485Z,86.83
2023-06-07T08:14:47.227Z,85.67
2023-06-07T08:19:49.824Z,85.96
2023-06-07T08:24:51.676Z,85.43
2023-06-07T08:29:53.332Z,85.26
2023-06-07T08:34:56.763Z,86.01
2023-06-07T08:39:58.507Z,83.50
2023-06-07T08:45:01.216Z,82.52
2023-06-07T08:50:05.319Z,82.60
2023-06-07T08:55:12.980Z,82.38
2023-06-07T09:00:15.443Z,81.04
2023-06-07T09:05:18.156Z,79.65
2023-06-07T09:10:19.957Z,76.43
2023-06-07T09:15:22.757Z,77.66
2023-06-07T09:20:28.520Z,77.48
2023-06-07T09:25:31.432Z,76.49
2023-06-07T09:30:33.430Z,75.85
2023-06-07T09:35:35.215Z,75.29
2023-06-07T09:40:37.220Z,75.01
2023-06-07T09:45:39.058Z,71.56
2023-06-07T09:50:56.025Z,72.52
2023-06-07T09:55:58.061Z,70.40
2023-06-07T10:00:59.921Z,70.25
2023-06-07T10:06:02.053Z,69.06
2023-06-07T10:11:04.223Z,68.30
2023-06-07T10:16:11.444Z,67.96
2023-06-07T10:21:19.270Z,67.19
2023-06-07T10:26:26.251Z,67.02
2023-06-07T10:31:33.130Z,66.96
2023-06-07T10:36:44.053Z,66.51
2023-06-07T10:41:46.738Z,66.28
2023-06-07T10:46:52.042Z,65.57
2023-06-07T10:52:00.326Z,65.75
2023-06-07T10:57:06.280Z,64.27
2023-06-07T11:02:22.497Z,61.25
2023-06-07T11:07:29.748Z,62.15
2023-06-07T11:12:46.119Z,61.39
2023-06-07T11:17:53.540Z,60.65
2023-06-07T11:23:18.091Z,59.84
2023-06-07T11:28:28.732Z,59.28
2023-06-07T11:33:31.702Z,59.23
2023-06-07T11:38:34.054Z,58.38
2023-06-07T11:43:36.966Z,57.15
2023-06-07T11:48:39.143Z,55.72
2023-06-07T11:53:42.367Z,53.53
2023-06-07T11:58:44.622Z,53.81
2023-06-07T12:03:47.919Z,55.03
2023-06-07T12:08:52.861Z,53.65
2023-06-07T12:13:55.108Z,53.20
2023-06-07T12:18:57.253Z,50.65
2023-06-07T12:24:01.807Z,51.14
2023-06-07T12:29:04.324Z,50.49
2023-06-07T12:34:07.430Z,50.74
2023-06-07T12:39:11.196Z,47.69
2023-06-07T12:44:13.666Z,47.54
2023-06-07T12:49:16.295Z,48.24
2023-06-07T12:54:18.341Z,47.24
2023-06-07T12:59:20.158Z,46.19
2023-06-07T13:04:22.886Z,44.85
2023-06-07T13:09:26.147Z,44.28
2023-06-07T13:14:28.060Z,44.42
2023-06-07T13:19:30.046Z,43.03
2023-06-07T13:24:33.606Z,44.96
2023-06-07T13:29:35.645Z,43.57
2023-06-07T13:39:40.150Z,42.67
2023-06-07T13:44:42.099Z,42.42
2023-06-07T13:49:43.945Z,41.70
2023-06-07T13:54:47.547Z,43.08
2023-06-07T13:59:49.300Z,44.65
2023-06-07T14:04:52.640Z,43.42
2023-06-07T14:09:54.424Z,42.86
2023-06-07T14:14:56.080Z,42.05
2023-06-07T14:19:57.932Z,41.56
2023-06-07T14:25:00.168Z,40.24
2023-06-07T14:30:02.128Z,36.08
2023-06-07T14:35:04.299Z,37.78
2023-06-07T14:40:07.524Z,36.92
2023-06-07T14:45:09.782Z,36.36
2023-06-07T14:50:11.914Z,34.83
2023-06-07T14:55:14.018Z,34.22
2023-06-07T15:00:16.693Z,33.32
2023-06-07T15:05:18.867Z,35.25
2023-06-07T15:10:21.044Z,33.91
2023-06-07T15:15:22.983Z,33.99
2023-06-07T15:20:25.206Z,34.81
2023-06-07T15:25:27.315Z,33.22
2023-06-07T15:30:29.065Z,34.14
2023-06-07T15:35:31.040Z,34.52
2023-06-07T15:40:32.774Z,34.89
2023-06-07T15:45:36.122Z,34.47
2023-06-07T15:50:38.737Z,33.90
2023-06-07T15:55:41.722Z,34.59
2023-06-07T16:00:47.893Z,34.97
2023-06-07T16:05:50.342Z,35.41
2023-06-07T16:10:53.197Z,36.29
2023-06-07T16:15:54.909Z,35.66
2023-06-07T16:20:56.761Z,35.62
2023-06-07T16:25:58.557Z,36.43
2023-06-07T16:31:00.484Z,36.04
2023-06-07T16:36:02.225Z,36.24
2023-06-07T16:41:05.986Z,35.84
2023-06-07T16:46:07.821Z,35.81
2023-06-07T16:51:10.100Z,36.63
2023-06-07T16:56:12.682Z,36.73
2023-06-07T17:01:14.462Z,38.02
2023-06-07T17:06:16.707Z,36.79
2023-06-07T17:11:18.699Z,38.06
2023-06-07T17:16:20.711Z,37.61
2023-06-07T17:21:22.523Z,37.45
2023-06-07T17:26:24.678Z,38.59
2023-06-07T17:31:26.800Z,37.38
2023-06-07T17:36:28.900Z,36.83
2023-06-07T17:41:30.654Z,36.72
2023-06-07T17:46:34.337Z,36.61
2023-06-07T17:51:37.361Z,37.22
2023-06-07T17:56:39.930Z,38.55
2023-06-07T18:01:42.883Z,38.87
2023-06-07T18:06:44.707Z,41.44
2023-06-07T18:11:46.944Z,43.25
2023-06-07T18:16:48.783Z,45.30
2023-06-07T18:21:53.057Z,46.11
2023-06-07T18:26:58.089Z,47.66
2023-06-07T18:32:00.116Z,48.94
2023-06-07T18:37:02.773Z,50.29
2023-06-07T18:42:05.246Z,50.76
2023-06-07T18:47:07.434Z,52.32
2023-06-07T18:52:11.826Z,53.53
2023-06-07T18:57:13.707Z,54.77
2023-06-07T19:02:15.574Z,55.30
2023-06-07T19:07:17.530Z,55.81
2023-06-07T19:12:19.344Z,55.85
2023-06-07T19:17:22.976Z,56.24
2023-06-07T19:22:24.805Z,56.39
2023-06-07T19:27:26.765Z,57.34
2023-06-07T19:32:30.401Z,58.29
2023-06-07T19:37:32.351Z,58.46
2023-06-07T19:42:36.025Z,58.77
2023-06-07T19:47:38.028Z,59.18
2023-06-07T19:52:42.867Z,59.80
2023-06-07T19:57:44.617Z,60.20
2023-06-07T20:02:48.071Z,60.39
2023-06-07T20:07:51.336Z,60.03
2023-06-07T20:12:54.274Z,59.92
2023-06-07T20:17:57.134Z,59.84
2023-06-07T20:22:59.242Z,60.22
2023-06-07T20:28:01.581Z,60.39
2023-06-07T20:33:03.420Z,61.51
2023-06-07T20:38:05.179Z,60.99
2023-06-07T20:43:06.932Z,60.77
2023-06-07T20:48:09.109Z,60.99
2023-06-07T20:53:10.863Z,60.73
2023-06-07T20:58:12.667Z,60.03
2023-06-07T21:03:14.838Z,60.81
2023-06-07T21:08:16.640Z,60.95
2023-06-07T21:13:18.689Z,61.19
2023-06-07T21:18:20.533Z,61.58
2023-06-07T21:23:22.597Z,61.52
2023-06-07T21:28:24.458Z,61.34
2023-06-07T21:33:28.767Z,61.12
2023-06-07T21:38:30.589Z,61.65
2023-06-07T21:43:32.310Z,61.83
2023-06-07T21:48:37.123Z,62.00
2023-06-07T21:53:38.953Z,62.09
2023-06-07T21:58:40.756Z,61.91
2023-06-07T22:03:42.599Z,61.88
2023-06-07T22:08:44.312Z,62.49
2023-06-07T22:13:46.039Z,63.11
2023-06-07T22:18:49.628Z,63.51
2023-06-07T22:23:53.031Z,63.51
2023-06-07T22:29:00.839Z,63.62
2023-06-07T22:34:04.301Z,63.84
2023-06-07T22:39:12.001Z,64.43
2023-06-07T22:44:13.822Z,64.55
2023-06-07T22:49:17.716Z,65.25
2023-06-07T22:54:19.562Z,65.07
2023-06-07T22:59:22.309Z,65.29
2023-06-07T23:04:24.473Z,65.85
2023-06-07T23:09:26.832Z,66.46
2023-06-07T23:14:28.864Z,66.56
2023-06-07T23:19:30.734Z,66.92
2023-06-07T23:24:32.452Z,67.35
2023-06-07T23:29:34.408Z,67.47
2023-06-07T23:34:38.228Z,67.26
2023-06-07T23:39:39.970Z,67.10
2023-06-07T23:44:41.869Z,66.32
2023-06-07T23:49:45.459Z,66.69
2023-06-07T23:54:47.600Z,67.32
2023-06-07T23:59:49.531Z,67.18
